Valentines, VA (23887)

3:36 PM EDT on September 17, 2014 (GMT -0400)
Roanoke Rapids Lake | Change Station
CLOSE
Current Station
Personal Weather Station
Location: Gaston, NC
Elevation: 190 ft
Nearby Weather Stations

Elev 190 ft 36.49 °N, 77.74 °W | Updated 6 seconds ago

Mostly Cloudy
Mostly Cloudy
76.5 °F
Feels Like 78 °F
N
4.5
Wind Variable Wind from South
Gusts 5.4 mph

Today
High -- | Low -- °F
--% Chance of Precip.
Yesterday
High -- | Low -- °F
Precip. -- in
6:55 AM 7:15 PM
Waning Crescent, 33% visible
Pressure 30.00 in
Visibility 10.0 miles
Clouds Scattered Clouds 3100 ft
Scattered Clouds 9000 ft
Heat Index 78 °F
Dew Point 66 °F
Humidity 71%
Rainfall 0.00 in
Snow Depth Not available.
UV 5 out of 12
Pollen 6.00 out of 12
Air Quality Not available.
Flu Activity Not available.
METAR KAVC 171915Z AUTO 00000KT 10SM SCT031 SCT090 24/17 A3000 RMK AO2

More Conditions Fewer Conditions

Pressure 30.00 in
Visibility 10.0 miles
Clouds Scattered Clouds 3100 ft
Scattered Clouds 9000 ft
Heat Index 78 °F
Dew Point 66 °F
Humidity 71%
Rainfall 0.00 in
Snow Depth Not available.
UV 5 out of 12
Pollen 6.00 out of 12
Air Quality Not available.
Flu Activity Not available.
METAR KAVC 171915Z AUTO 00000KT 10SM SCT031 SCT090 24/17 A3000 RMK AO2

More Conditions Fewer Conditions

10-Day Weather Forecast

Almanac

Astronomy

Sep. 17, 2014 Rise Set
Actual Time 6:55 AM EDT 7:15 PM EDT
Civil Twilight 6:29 AM EDT 7:41 PM EDT
Nautical Twilight 5:59 AM EDT 8:11 PM EDT
Astronomical Twilight 5:28 AM EDT 8:42 PM EDT
Moon 1:00 AM EDT 3:17 PM EDT
Length of Visible Light 13h 12m
Length of Day
12h 20m
Tomorrow will be 2m 18s shorter.
Waning Crescent, 33% of the Moon is Illuminated
Today
Waning Crescent
Sep 24
New
Oct 1
First Quarter
Oct 8
Full
Oct 15
Last Quarter

Today's Extremes

State Highs State Lows

Community

WunderPhotos

Upload Photos

1,754,139 photos uploaded!

Nearby

Snow Depth

Station Depth Elevation
No new snow has been reported.

Earthquake Activity

City Distance Mag. Time & Date
No recent earthquake activity has been reported nearby.
Minimum magnitude displayed is 2.5.

Coastal Water Temperatures

Place Temperature
No Stations Reporting

Nearby Weather Stations